Tiempo atmosférico en la estación meteorológica de Garrucha, Puerto, Almería (12 m.)



Fecha
DESCASC
Temp. máxima en grados centígrados (hora)
DESCASC
Temp. mínima en grados centígrados (hora)
DESCASC
Temp. media en grados centígrados
DESCASC
Racha de viento máxima en m/sg (hora)
DESCASC
Velocidad máxima media en intervalos de 10 minutos(hora)
DESCASC
Precipitaciones diarias en mm
DESCASC
Precipitaciones de 00:00 a 06:00 en mm
DESCASC
Precipitaciones de 06:00 a 12:00 en mm
DESCASC
Precipitaciones de 12:00 a 18:00 en mm
DESCASC
Precipitaciones de 18:00 a 24:00 en mm
DESCASC
31-03-2020 16.5 (12:40) 12.2 (08:20) 14.3 11.39 (00:10) 8.89 (00:10) 5.4 0 5.4 0 0
30-03-2020 16.6 (12:30) 10.5 (06:10) 13.6 13.33 (16:00) 10.28 (16:00) 0 0 0 0 0
29-03-2020 17.6 (20:00) 8.7 (00:00) 13.2 11.67 (16:40) 10.28 (16:40) 0 0 0 0 0
28-03-2020 15.4 (15:00) 9.8 (00:00) 12.6 8.33 (07:30) 5.83 (07:30) 7.8 7.6 0.2 0 0
27-03-2020 15.3 (11:40) 10.5 (00:00) 12.9 12.22 (20:20) 9.44 (20:10) 2.2 0 0 0 2.2
26-03-2020 22.3 (16:30) 9.9 (00:00) 16.1 15 (17:20) 9.72 (22:00) 0 0 0 0 0
25-03-2020 15.9 (11:40) 10.4 (00:00) 13.1 13.89 (01:10) 9.17 (01:10) 0 0 0 0 0
24-03-2020 14.9 (01:10) 12 (00:00) 13.4 17.5 (15:40) 13.61 (15:40) 21.8 0.4 10.8 5.6 5
23-03-2020 15.7 (15:10) 9.1 (00:00) 12.4 15.83 (22:50) 12.5 (22:50) 2.6 0 0.2 1.4 1
22-03-2020 13.6 (21:10) 10.4 (05:20) 12 6.11 (14:10) 5 (14:10) 5.4 0 3.4 2 0
21-03-2020 16.3 (17:20) 11.2 (00:00) 13.7 11.39 (10:50) 8.33 (11:20) 14 0 13.8 0.2 0
20-03-2020 16.2 (16:40) 11.6 (00:00) 13.9 11.94 (19:40) 10 (19:40) 0 0 0 0 0
19-03-2020 16.9 (14:50) 13.1 (00:00) 15 10.56 (09:50) 8.33 (18:40) 0 0 0 0 0
18-03-2020 17.6 (13:20) 15.6 (00:00) 16.6 13.89 (02:10) 10 (02:20) 0 0 0 0 0
17-03-2020 17.1 (18:10) 8.1 (00:00) 12.6 15.56 (23:10) 11.39 (23:20) 0 0 0 0 0
16-03-2020 20.1 (18:20) 11.2 (00:00) 15.7 13.33 (12:00) 8.33 (11:20) 0 0 0 0 0
15-03-2020 18.9 (12:30) 13.1 (00:00) 16 7.5 (16:10) 6.67 (16:20) 0 0 0 0 0
14-03-2020 18.4 (10:30) 13.4 (00:00) 15.9 5.28 (09:00) 4.17 (13:40) 0 0 0 0 0
13-03-2020 19 (10:50) 13.5 (08:00) 16.3 5 (16:20) 3.89 (16:20) 0 0 0 0 0
12-03-2020 20.5 (13:00) 12.3 (00:00) 16.4 4.72 (04:20) 3.89 (04:20) 0 0 0 0 0
11-03-2020 18.1 (17:30) 12.3 (00:00) 15.2 6.39 (14:00) 5.28 (14:10) 0 0 0 0 0
10-03-2020 18.8 (10:20) 12.8 (00:00) 15.8 11.39 (19:10) 8.33 (17:40) 0 0 0 0 0
09-03-2020 19.3 (03:40) 13.5 (00:00) 16.4 9.72 (18:40) 8.33 (18:30) 0 0 0 0 0
08-03-2020 19.7 (18:20) 10.4 (00:00) 15.1 13.89 (14:50) 11.67 (15:10) 0 0 0 0 0
07-03-2020 17.7 (12:10) 11.4 (00:00) 14.6 11.94 (16:00) 10 (16:00) 0 0 0 0 0
06-03-2020 20.2 (15:10) 14.4 (00:00) 17.3 20.28 (04:40) 13.89 (04:30) 0 0 0 0 0
05-03-2020 24 (17:10) 12.1 (00:00) 18.1 19.17 (20:20) 12.5 (20:10) 0 0 0 0 0
04-03-2020 20.9 (03:30) 14.3 (00:00) 17.6 14.17 (03:40) 9.44 (03:30) 0 0 0 0 0
03-03-2020 24.3 (15:10) 12.5 (00:00) 18.4 20 (15:00) 13.33 (18:30) 0 0 0 0 0

Gráficas

Temp. máximas Temp. mínimas Temp. medias Precipitaciones Rachas de viento máximas Velocidades máximas media en intervalos de 10 minutos

Datos horarios

Fecha y hora oficial Temperatura (ºC) Velocidad del viento (km/h) Dirección del viento Racha (km/h) Dirección de racha Precipitación (mm) Presión (hPa) Tendencia (hPa) Humedad (%)
2020-04-01 23:00:00 16.8 20 Sudoeste 27 Sudoeste 0 -- -- 58
2020-04-01 22:00:00 16.8 9 Noroeste 16 Oeste 0 -- -- 61
2020-04-01 21:00:00 17.6 11 Oeste 25 Noroeste 0 -- -- 62
2020-04-01 20:00:00 19.1 11 Noroeste 26 Oeste 0 -- -- 57
2020-04-01 19:00:00 20.1 14 Oeste 28 Sudoeste 0 -- -- 53
2020-04-01 18:00:00 19.5 23 Sudoeste 36 Sudoeste 0 -- -- 57
2020-04-01 17:00:00 19.9 21 Sudoeste 42 Sur 0 -- -- 58
2020-04-01 16:00:00 20 26 Sudoeste 40 Sudoeste 0 -- -- 54
2020-04-01 15:00:00 18.7 28 Sur 37 Sudeste 0 -- -- 67
2020-04-01 14:00:00 19 9 Este 23 Sur 0 -- -- 72
2020-04-01 13:00:00 17.9 9 Nordeste 12 Nordeste 0 -- -- 80
2020-04-01 12:00:00 16.3 8 Este 10 Este 0 -- -- 81
2020-04-01 11:00:00 15.5 4 Norte 9 Noroeste 0 -- -- 86
2020-04-01 10:00:00 14.4 5 Oeste 14 Sudoeste 0 -- -- 89
2020-04-01 09:00:00 13.7 10 Sudoeste 17 Oeste 0 -- -- 89
2020-04-01 08:00:00 13.4 12 Oeste 17 Oeste 0 -- -- 93
2020-04-01 07:00:00 13.7 8 Oeste 12 Oeste 0 -- -- 91
2020-04-01 06:00:00 13.7 11 Sudoeste 15 Sudoeste 0 -- -- 92
2020-04-01 05:00:00 14.2 10 Sudoeste 14 Oeste 0 -- -- 92
2020-04-01 04:00:00 13.9 2 Sudoeste 16 Sudoeste 0 -- -- 96
2020-04-01 03:00:00 14.6 3 Oeste 10 Oeste 0 -- -- 96
2020-04-01 02:00:00 14.6 4 Oeste 16 Sur 0 -- -- 94
2020-04-01 01:00:00 15.7 13 Sudeste 20 Sudeste 0 -- -- 93
2020-04-01 00:00:00 15.7 17 Sudeste 26 Sudeste 0 -- -- 94
2020-03-31 23:00:00 15.6 10 Sudeste 18 Sudeste 0 -- -- 94
2020-03-31 22:00:00 15.6 15 Sudeste 21 Sudeste 0 -- -- 92
2020-03-31 21:00:00 15.5 14 Este 18 Este 0 -- -- 92
2020-03-31 20:00:00 15.6 15 Este 23 Sudeste 0 -- -- 91
2020-03-31 19:00:00 15.7 23 Sudeste 28 Sudeste 0 -- -- 91
2020-03-31 18:00:00 15.6 20 Este 25 Este 0 -- -- 91
2020-03-31 17:00:00 15.5 21 Este 26 Nordeste 0 -- -- 90
2020-03-31 16:00:00 15.6 18 Este 24 Este 0 -- -- 87
2020-03-31 15:00:00 15.9 15 Este 18 Este 0 -- -- 84
2020-03-31 14:00:00 16.4 8 Este 10 Este 0 -- -- 80
2020-03-31 13:00:00 16.3 8 Nordeste 12 Nordeste 0 -- -- 79
2020-03-31 12:00:00 15 4 Noroeste 11 Oeste 0 -- -- 82
2020-03-31 11:00:00 13.5 9 Oeste 15 Noroeste 0 -- -- 89
2020-03-31 10:00:00 12.6 11 Noroeste 17 Oeste 0.2 -- -- 95
2020-03-31 09:00:00 12.4 2 Norte 7 Nordeste 0 -- -- 95
2020-03-31 08:00:00 12.5 5 Noroeste 21 Oeste 4.4 -- -- 95
2020-03-31 07:00:00 13.2 14 Noroeste 28 Oeste 0.8 -- -- 87
2020-03-31 06:00:00 13.7 5 Norte 31 Norte 0 -- -- 85
2020-03-31 05:00:00 14.2 24 Nordeste 36 Nordeste 0 -- -- 89
2020-03-31 04:00:00 14.3 26 Nordeste 35 Nordeste 0 -- -- 90
2020-03-31 03:00:00 14.4 26 Nordeste 40 Nordeste 0 -- -- 90
2020-03-31 02:00:00 14.5 29 Nordeste 41 Nordeste 0 -- -- 91
2020-03-31 01:00:00 14.7 28 Nordeste 41 Nordeste 0 -- -- 91
2020-03-31 00:00:00 14.8 31 Nordeste 43 Nordeste 0 -- -- 90
2020-03-30 23:00:00 15.5 26 Este 37 Este 0 -- -- 88
2020-03-30 22:00:00 15.5 30 Nordeste 34 Nordeste 0 -- -- 89
2020-03-30 21:00:00 15.5 25 Nordeste 30 Nordeste 0 -- -- 89
2020-03-30 20:00:00 15.7 25 Nordeste 30 Nordeste 0 -- -- 90
2020-03-30 19:00:00 15.9 27 Nordeste 32 Nordeste 0 -- -- 90
2020-03-30 18:00:00 15.8 27 Sudeste 35 Sudeste 0 -- -- 90
2020-03-30 17:00:00 16 28 Sudeste 42 Sudeste 0 -- -- 86
2020-03-30 16:00:00 16 37 Sudeste 48 Sur 0 -- -- 86
2020-03-30 15:00:00 16 34 Sur 42 Sur 0 -- -- 87
2020-03-30 14:00:00 16 31 Sudeste 38 Sur 0 -- -- 85
2020-03-30 13:00:00 16.4 19 Sudeste 24 Sudeste 0 -- -- 83
2020-03-30 12:00:00 16.3 8 Este 11 Sudeste 0 -- -- 76
2020-03-30 11:00:00 15.2 4 Nordeste 6 Noroeste 0 -- -- 74
2020-03-30 10:00:00 13.2 4 Noroeste 9 Sudoeste 0 -- -- 79
2020-03-30 09:00:00 12.6 5 Oeste 12 Oeste 0 -- -- 80
2020-03-30 08:00:00 11.2 4 Noroeste 8 Noroeste 0 -- -- 86
2020-03-30 07:00:00 11 6 Oeste 15 Noroeste 0 -- -- 88
2020-03-30 06:00:00 10.8 7 Noroeste 11 Oeste 0 -- -- 86
2020-03-30 05:00:00 12.3 0 Calma 9 Sudoeste 0 -- -- 81
2020-03-30 04:00:00 12.3 5 Noroeste 17 Sudoeste 0 -- -- 81
2020-03-30 03:00:00 13.2 12 Oeste 18 Oeste 0 -- -- 79
2020-03-30 02:00:00 13.5 10 Sudoeste 19 Sudoeste 0 -- -- 78
2020-03-30 01:00:00 14.8 16 Oeste 32 Oeste 0 -- -- 72
2020-03-30 00:00:00 14.6 20 Sudoeste 31 Oeste 0 -- -- 71
2020-03-29 23:00:00 14.9 18 Sudoeste 23 Sudoeste 0 -- -- 67
2020-03-29 22:00:00 14.9 17 Sudoeste 24 Oeste 0 -- -- 68
2020-03-29 21:00:00 16 19 Oeste 25 Oeste 0 -- -- 60
2020-03-29 20:00:00 17.6 8 Sudoeste 30 Sur 0 -- -- 57
2020-03-29 19:00:00 16.9 26 Sur 36 Sur 0 -- -- 69
2020-03-29 18:00:00 16.2 32 Sur 42 Sur 0 -- -- 80
2020-03-29 17:00:00 15.8 36 Sur 42 Sur 0 -- -- 82
2020-03-29 16:00:00 15.8 32 Sur 38 Sudeste 0 -- -- 84
2020-03-29 15:00:00 15.6 31 Sur 35 Sur 0 -- -- 79
2020-03-29 14:00:00 15.2 29 Sur 32 Sudeste 0 -- -- 78
2020-03-29 13:00:00 14.5 19 Sudeste 22 Sudeste 0 -- -- 78
2020-03-29 12:00:00 14.4 14 Sudeste 15 Sur 0 -- -- 76
2020-03-29 11:00:00 13.9 4 Oeste 12 Oeste 0 -- -- 65
2020-03-29 10:00:00 11.6 8 Oeste 14 Oeste 0 -- -- 75
2020-03-29 09:00:00 9.4 9 Oeste 15 Oeste 0 -- -- 82
2020-03-29 08:00:00 8.7 5 Oeste 14 Oeste 0 -- -- 86
2020-03-29 07:00:00 9.1 12 Noroeste 18 Oeste 0 -- -- 86
2020-03-29 06:00:00 8.9 14 Oeste 19 Oeste 0 -- -- 88
2020-03-29 05:00:00 8.9 10 Noroeste 13 Noroeste 0 -- -- 89
2020-03-29 03:00:00 10.4 12 Oeste 19 Oeste 0 -- -- 84
2020-03-29 01:00:00 10.6 14 Oeste 20 Oeste 0 -- -- 85
2020-03-29 00:00:00 11.5 11 Oeste 19 Sudoeste 0 -- -- 83
2020-03-28 23:00:00 12.4 14 Sudoeste 19 Sudoeste 0 -- -- 79
2020-03-28 22:00:00 12.3 14 Sudoeste 18 Sudoeste 0 -- -- 80
2020-03-28 21:00:00 13.8 2 Oeste 10 Sur 0 -- -- 74
2020-03-28 20:00:00 14 6 Sudeste 13 Sudeste 0 -- -- 73
2020-03-28 19:00:00 14.4 11 Sudeste 21 Este 0 -- -- 73
2020-03-28 18:00:00 14.9 18 Este 24 Este 0 -- -- 73
2020-03-28 17:00:00 14.7 20 Este 24 Este 0 -- -- 68
2020-03-28 16:00:00 14.7 21 Este 25 Este 0 -- -- 67
2020-03-28 15:00:00 15.4 17 Nordeste 25 Nordeste 0 -- -- 69
2020-03-28 14:00:00 15.2 16 Nordeste 23 Nordeste 0 -- -- 71
2020-03-28 13:00:00 15.3 12 Nordeste 24 Nordeste 0 -- -- 69
2020-03-28 12:00:00 13.8 10 Norte 21 Norte 0 -- -- 69
2020-03-28 11:00:00 13 13 Norte 23 Noroeste 0 -- -- 73
2020-03-28 10:00:00 12.1 10 Norte 19 Noroeste 0 -- -- 78
2020-03-28 09:00:00 10.2 13 Noroeste 25 Noroeste 0 -- -- 88
2020-03-28 08:00:00 9.9 14 Norte 30 Norte 0 -- -- 89
2020-03-28 07:00:00 10.1 14 Norte 25 Norte 0.2 -- -- 92
2020-03-28 06:00:00 10 13 Norte 24 Norte 0.6 -- -- 95
2020-03-28 05:00:00 10.1 13 Noroeste 24 Norte 1.2 -- -- 96
2020-03-28 04:00:00 9.9 13 Noroeste 20 Oeste 1.6 -- -- 96
2020-03-28 03:00:00 10.1 10 Noroeste 17 Noroeste 3.6 -- -- 94
2020-03-28 02:00:00 10.7 12 Noroeste 17 Noroeste 0.2 -- -- 92
2020-03-28 01:00:00 10.6 13 Noroeste 18 Noroeste 0.4 -- -- 94
2020-03-28 00:00:00 10.7 11 Oeste 22 Noroeste 0.2 -- -- 93
2020-03-27 23:00:00 10.6 12 Noroeste 22 Noroeste 1.2 -- -- 94
2020-03-27 22:00:00 11 12 Noroeste 25 Noroeste 0.8 -- -- 93
2020-03-27 21:00:00 11.9 14 Norte 44 Nordeste 0 -- -- 87
2020-03-27 20:00:00 13.7 30 Nordeste 42 Nordeste 0 -- -- 83
2020-03-27 19:00:00 14.1 27 Nordeste 38 Nordeste 0 -- -- 80
2020-03-27 18:00:00 14.2 26 Nordeste 34 Nordeste 0 -- -- 78
2020-03-27 17:00:00 14.2 20 Nordeste 29 Nordeste 0 -- -- 79
2020-03-27 16:00:00 14.2 18 Nordeste 28 Nordeste 0 -- -- 78
2020-03-27 15:00:00 14.4 21 Nordeste 31 Nordeste 0 -- -- 77
2020-03-27 14:00:00 14.6 18 Nordeste 25 Nordeste 0 -- -- 76
2020-03-27 13:00:00 15.1 17 Nordeste 26 Nordeste 0 -- -- 74
2020-03-27 12:00:00 14.7 17 Nordeste 25 Nordeste 0 -- -- 73
2020-03-27 11:00:00 14.3 16 Nordeste 26 Nordeste 0 -- -- 73
2020-03-27 10:00:00 13.6 12 Nordeste 31 Nordeste 0 -- -- 76
2020-03-27 09:00:00 13.7 23 Nordeste 31 Nordeste 0 -- -- 75
2020-03-27 08:00:00 13.6 24 Nordeste 33 Este 0 -- -- 71
2020-03-27 07:00:00 13.5 23 Nordeste 35 Nordeste 0 -- -- 73
2020-03-27 06:00:00 13.5 29 Nordeste 39 Este 0 -- -- 74
2020-03-27 05:00:00 13.5 28 Nordeste 40 Nordeste 0 -- -- 75
2020-03-27 04:00:00 13.9 28 Nordeste 36 Nordeste 0 -- -- 76
2020-03-27 03:00:00 13.9 27 Nordeste 34 Nordeste 0 -- -- 74
2020-03-27 02:00:00 14 29 Nordeste 38 Nordeste 0 -- -- 74
2020-03-27 01:00:00 14.3 29 Nordeste 40 Nordeste 0 -- -- 76
2020-03-27 00:00:00 14.4 31 Nordeste 42 Nordeste 0 -- -- 76
2020-03-26 23:00:00 14.6 32 Nordeste 44 Nordeste 0 -- -- 78
2020-03-26 22:00:00 14.8 35 Nordeste 45 Nordeste 0 -- -- 90
2020-03-26 21:00:00 15.9 26 Nordeste 34 Nordeste 0 -- -- 88
2020-03-26 20:00:00 16.2 12 Norte 18 Nordeste 0 -- -- 87
2020-03-26 19:00:00 16.9 8 Norte 26 Este 0 -- -- 83
2020-03-26 18:00:00 17.5 22 Nordeste 54 Nordeste 0 -- -- 77
2020-03-26 17:00:00 17.4 18 Norte 47 Noroeste 0 -- -- 77
2020-03-26 16:00:00 22 28 Noroeste 45 Noroeste 0 -- -- 39
2020-03-26 15:00:00 22.1 31 Oeste 50 Oeste 0 -- -- 40
2020-03-26 14:00:00 21.8 30 Oeste 48 Oeste 0 -- -- 40
2020-03-26 13:00:00 19.5 13 Nordeste 31 Sur 0 -- -- 52
2020-03-26 12:00:00 17.9 5 Nordeste 22 Sudoeste 0 -- -- 67
2020-03-26 11:00:00 18.9 18 Sudoeste 30 Sudoeste 0 -- -- 56
2020-03-26 10:00:00 16.8 19 Sudoeste 32 Sudoeste 0 -- -- 59
2020-03-26 09:00:00 14.6 21 Sudoeste 31 Sudoeste 0 -- -- 67
2020-03-26 08:00:00 14.6 21 Oeste 33 Oeste 0 -- -- 65
2020-03-26 07:00:00 12.5 20 Sudoeste 31 Sudoeste 0 -- -- 74
2020-03-26 06:00:00 10.7 13 Sudoeste 24 Sudoeste 0 -- -- 84
2020-03-26 05:00:00 10.6 17 Sudoeste 21 Sudoeste 0 -- -- 84
2020-03-26 04:00:00 10.2 8 Oeste 16 Noroeste 0 -- -- 85
2020-03-26 03:00:00 10.2 8 Noroeste 13 Sudoeste 0 -- -- 83
2020-03-26 02:00:00 10.8 9 Sudoeste 12 Sudoeste 0 -- -- 79
2020-03-26 01:00:00 10.8 4 Noroeste 8 Sudoeste 0 -- -- 79
2020-03-26 00:00:00 11.4 6 Sudoeste 15 Sudoeste 0 -- -- 76
2020-03-25 23:00:00 12.4 6 Sudoeste 17 Sur 0 -- -- 74
2020-03-25 22:00:00 12.9 14 Sur 27 Sur 0 -- -- 73
2020-03-25 21:00:00 13.3 18 Sur 25 Sur 0 -- -- 74
2020-03-25 20:00:00 13.2 18 Sur 26 Sur 0 -- -- 75
2020-03-25 19:00:00 13.4 18 Sur 29 Sur 0 -- -- 74
2020-03-25 18:00:00 13.7 24 Sudeste 32 Sudeste 0 -- -- 69
2020-03-25 17:00:00 14.2 30 Sudeste 35 Sudeste 0 -- -- 68
2020-03-25 16:00:00 14.2 25 Sudeste 32 Sudeste 0 -- -- 69
2020-03-25 15:00:00 14.6 18 Sudeste 24 Este 0 -- -- 65
2020-03-25 14:00:00 14.5 18 Este 22 Este 0 -- -- 70
2020-03-25 13:00:00 14.7 16 Sudeste 20 Este 0 -- -- 65
2020-03-25 12:00:00 15 15 Este 21 Este 0 -- -- 62
2020-03-25 11:00:00 14.7 9 Norte 17 Norte 0 -- -- 63
2020-03-25 10:00:00 13.7 8 Noroeste 22 Noroeste 0 -- -- 70
2020-03-25 09:00:00 12.1 13 Norte 23 Norte 0 -- -- 76
2020-03-25 08:00:00 10.9 11 Noroeste 17 Noroeste 0 -- -- 83
2020-03-25 07:00:00 10.9 13 Noroeste 21 Norte 0 -- -- 80
2020-03-25 06:00:00 11.6 10 Noroeste 21 Norte 0 -- -- 78
2020-03-25 05:00:00 11.7 10 Noroeste 17 Norte 0 -- -- 80
2020-03-25 04:00:00 12 13 Norte 21 Noroeste 0 -- -- 81
2020-03-25 03:00:00 12.1 14 Noroeste 24 Norte 0 -- -- 81
2020-03-25 02:00:00 12.4 16 Norte 50 Norte 0 -- -- 83
2020-03-25 01:00:00 13.6 31 Norte 46 Nordeste 0 -- -- 78
2020-03-25 00:00:00 12.7 15 Norte 57 Norte 0.2 -- -- 88
2020-03-24 23:00:00 13.5 18 Norte 42 Norte 0 -- -- 85
2020-03-24 22:00:00 12.9 16 Norte 28 Noroeste 0.2 -- -- 93
2020-03-24 21:00:00 12.8 16 Noroeste 37 Nordeste 2.2 -- -- 94
2020-03-24 20:00:00 12.9 13 Norte 36 Norte 2 -- -- 94
2020-03-24 19:00:00 13.9 24 Norte 44 Norte 0.4 -- -- 90
2020-03-24 18:00:00 13.8 27 Norte 57 Nordeste 0.4 -- -- 89
2020-03-24 17:00:00 14.2 43 Nordeste 62 Norte 0 -- -- 90
2020-03-24 16:00:00 14.3 37 Norte 63 Nordeste 0.2 -- -- 91
2020-03-24 15:00:00 14.3 42 Norte 57 Norte 0.2 -- -- 92
2020-03-24 14:00:00 14.4 34 Nordeste 53 Nordeste 2.2 -- -- 94
2020-03-24 13:00:00 12.8 19 Norte 37 Norte 2.6 -- -- 95
2020-03-24 12:00:00 12.8 23 Norte 38 Norte 3 -- -- 93
2020-03-24 11:00:00 12.7 26 Norte 44 Norte 0.8 -- -- 90
2020-03-24 10:00:00 12.4 16 Noroeste 29 Noroeste 4.2 -- -- 92
2020-03-24 09:00:00 12.2 15 Noroeste 27 Noroeste 0.8 -- -- 92
2020-03-24 08:00:00 12.8 18 Noroeste 27 Noroeste 1.8 -- -- 90
2020-03-24 07:00:00 13.3 14 Noroeste 26 Noroeste 0.2 -- -- 86
2020-03-24 06:00:00 13.5 16 Norte 27 Norte 0 -- -- 86
2020-03-24 05:00:00 13 18 Norte 31 Norte 0 -- -- 86
2020-03-24 04:00:00 12.8 21 Noroeste 30 Noroeste 0.4 -- -- 85
2020-03-24 03:00:00 13.7 15 Noroeste 44 Norte 0 -- -- 79
2020-03-24 02:00:00 14.4 24 Norte 48 Norte 0 -- -- 79
2020-03-24 01:00:00 14.8 27 Norte 48 Norte 0 -- -- 80
2020-03-24 00:00:00 14.6 30 Norte 51 Nordeste 0 -- -- 89
2020-03-23 23:00:00 14.5 40 Nordeste 57 Nordeste 0.2 -- -- 90
2020-03-23 22:00:00 14.3 22 Norte 38 Norte 0.6 -- -- 90
2020-03-23 21:00:00 14.3 10 Norte 25 Norte 0.2 -- -- 87
2020-03-23 20:00:00 14.8 13 Norte 30 Nordeste 0 -- -- 87
2020-03-23 19:00:00 14.6 13 Norte 24 Norte 0 -- -- 88
2020-03-23 18:00:00 14.8 18 Norte 32 Norte 0.4 -- -- 91
2020-03-23 17:00:00 14.7 24 Nordeste 43 Nordeste 0.2 -- -- 88
2020-03-23 16:00:00 15.3 22 Nordeste 31 Nordeste 0.2 -- -- 90
2020-03-23 15:00:00 15.3 9 Norte 24 Nordeste 0.6 -- -- 83
2020-03-23 14:00:00 15.4 6 Nordeste 20 Norte 0 -- -- 80
2020-03-23 13:00:00 15.2 10 Norte 21 Norte 0 -- -- 80
2020-03-23 12:00:00 15 13 Norte 23 Norte 0.2 -- -- 75
2020-03-23 11:00:00 13.8 9 Noroeste 17 Noroeste 0 -- -- 81
2020-03-23 10:00:00 12.2 10 Noroeste 16 Oeste 0 -- -- 89
2020-03-23 09:00:00 10.8 12 Noroeste 19 Noroeste 0 -- -- 92
2020-03-23 08:00:00 9.7 9 Noroeste 17 Noroeste 0 -- -- 95
2020-03-23 07:00:00 9.1 13 Noroeste 15 Oeste 0 -- -- 95
2020-03-23 06:00:00 10.1 5 Noroeste 19 Oeste 0 -- -- 95
2020-03-23 05:00:00 10.1 12 Oeste 18 Oeste 0 -- -- 94
2020-03-23 04:00:00 10.5 11 Oeste 16 Oeste 0 -- -- 95
2020-03-23 03:00:00 10.5 9 Oeste 14 Noroeste 0 -- -- 94
2020-03-23 02:00:00 11.1 5 Noroeste 12 Oeste 0 -- -- 94
2020-03-23 01:00:00 11.6 5 Oeste 10 Sudoeste 0 -- -- 94
2020-03-23 00:00:00 11.5 8 Oeste 12 Oeste 0 -- -- 94
2020-03-22 23:00:00 12.2 5 Oeste 9 Oeste 0 -- -- 92
2020-03-22 22:00:00 13 5 Sudoeste 18 Sudeste 0 -- -- 89
2020-03-22 21:00:00 13.5 13 Sudeste 18 Este 0 -- -- 88
2020-03-22 20:00:00 13.4 10 Este 14 Sudeste 0 -- -- 89
2020-03-22 19:00:00 13.4 11 Sudeste 15 Sudeste 0 -- -- 90
2020-03-22 18:00:00 13 9 Sudeste 14 Sudeste 0 -- -- 91
2020-03-22 17:00:00 13.1 9 Este 14 Sudeste 0 -- -- 92
2020-03-22 16:00:00 12.6 6 Sudeste 15 Sudeste 0 -- -- 91
2020-03-22 15:00:00 12.5 12 Sudeste 22 Este 0.4 -- -- 93
2020-03-22 14:00:00 12.3 15 Este 19 Este 1 -- -- 92
2020-03-22 13:00:00 12.1 4 Nordeste 9 Nordeste 0.6 -- -- 90
2020-03-22 12:00:00 11.7 4 Nordeste 6 Norte 0.8 -- -- 90
2020-03-22 11:00:00 11.4 2 Norte 7 Noroeste 0.6 -- -- 91
2020-03-22 10:00:00 11.4 4 Oeste 9 Oeste 0 -- -- 90
2020-03-22 09:00:00 11.3 5 Sudoeste 17 Sudoeste 0.8 -- -- 90
2020-03-22 08:00:00 11.1 13 Sudoeste 17 Sudoeste 0.6 -- -- 92
2020-03-22 07:00:00 11 12 Oeste 18 Oeste 0.6 -- -- 93
2020-03-22 06:00:00 10.5 10 Oeste 15 Oeste 0 -- -- 94
2020-03-22 05:00:00 10.7 9 Oeste 13 Oeste 0 -- -- 94
2020-03-22 04:00:00 10.8 5 Oeste 12 Noroeste 0 -- -- 93
2020-03-22 03:00:00 11.4 5 Oeste 11 Oeste 0 -- -- 91
2020-03-22 02:00:00 11.8 7 Noroeste 11 Noroeste 0 -- -- 88
2020-03-22 01:00:00 11.8 6 Noroeste 8 Noroeste 0 -- -- 91
2020-03-22 00:00:00 12.3 2 Norte 10 Noroeste 0 -- -- 91
2020-03-21 23:00:00 12.8 8 Noroeste 16 Noroeste 0 -- -- 86
2020-03-21 22:00:00 12.9 5 Noroeste 13 Noroeste 0 -- -- 87
2020-03-21 21:00:00 13.6 6 Noroeste 21 Norte 0 -- -- 84
2020-03-21 20:00:00 15 13 Norte 19 Nordeste 0 -- -- 82
2020-03-21 19:00:00 14.9 14 Nordeste 21 Nordeste 0 -- -- 80
2020-03-21 18:00:00 15.6 16 Nordeste 23 Nordeste 0 -- -- 79
2020-03-21 17:00:00 16.1 8 Nordeste 22 Este 0 -- -- 79
2020-03-21 16:00:00 15.5 19 Este 22 Este 0 -- -- 82
2020-03-21 15:00:00 14.9 14 Sudeste 20 Sudeste 0 -- -- 78
2020-03-21 14:00:00 14.2 7 Sudoeste 27 Noroeste 0 -- -- 81
2020-03-21 13:00:00 12.8 20 Noroeste 30 Noroeste 0.2 -- -- 89
2020-03-21 12:00:00 11.2 23 Oeste 40 Sudoeste 8.6 -- -- 92
2020-03-21 11:00:00 11.7 20 Sudoeste 41 Sur 5.2 -- -- 90
2020-03-21 10:00:00 15.2 23 Nordeste 30 Nordeste 0 -- -- 81
2020-03-21 09:00:00 14.2 4 Norte 8 Norte 0 -- -- 78
2020-03-21 08:00:00 13.7 8 Oeste 13 Oeste 0 -- -- 80
2020-03-21 07:00:00 14 9 Noroeste 18 Norte 0 -- -- 78
2020-03-21 06:00:00 14.2 9 Norte 12 Norte 0 -- -- 78
2020-03-21 05:00:00 14.2 5 Noroeste 13 Oeste 0 -- -- 79
2020-03-21 04:00:00 14.3 10 Oeste 13 Oeste 0 -- -- 78
2020-03-21 03:00:00 14.3 8 Noroeste 22 Noroeste 0 -- -- 78
2020-03-21 02:00:00 14.7 11 Noroeste 17 Noroeste 0 -- -- 77
2020-03-21 01:00:00 14.5 6 Noroeste 21 Nordeste 0 -- -- 81
2020-03-21 00:00:00 15 17 Norte 24 Nordeste 0 -- -- 84
2020-03-20 23:00:00 15 11 Norte 25 Nordeste 0 -- -- 84
2020-03-20 22:00:00 15.3 18 Nordeste 27 Nordeste 0 -- -- 85
2020-03-20 21:00:00 15.2 21 Nordeste 42 Nordeste 0 -- -- 86
2020-03-20 20:00:00 15.2 33 Nordeste 43 Este 0 -- -- 85
2020-03-20 19:00:00 15.3 35 Nordeste 41 Nordeste 0 -- -- 84
2020-03-20 18:00:00 15.6 29 Nordeste 35 Nordeste 0 -- -- 82
2020-03-20 17:00:00 16 25 Nordeste 34 Nordeste 0 -- -- 79
2020-03-20 16:00:00 15.8 18 Nordeste 31 Nordeste 0 -- -- 76
2020-03-20 15:00:00 15.7 15 Nordeste 26 Norte 0 -- -- 77
2020-03-20 14:00:00 15.1 20 Norte 31 Norte 0 -- -- 74
2020-03-20 13:00:00 14 19 Norte 26 Norte 0 -- -- 82
2020-03-20 12:00:00 13.2 16 Noroeste 32 Nordeste 0 -- -- 87
2020-03-20 11:00:00 14.9 24 Nordeste 35 Nordeste 0 -- -- 80
2020-03-20 10:00:00 14.4 12 Norte 31 Norte 0 -- -- 73
2020-03-20 09:00:00 13.6 17 Norte 30 Norte 0 -- -- 76
2020-03-20 08:00:00 13.1 15 Norte 22 Noroeste 0 -- -- 78
2020-03-20 07:00:00 12.3 13 Noroeste 23 Noroeste 0 -- -- 80
2020-03-20 06:00:00 12.9 14 Noroeste 21 Norte 0 -- -- 79
2020-03-20 05:00:00 13 15 Noroeste 26 Noroeste 0 -- -- 80
2020-03-20 04:00:00 13 16 Noroeste 22 Noroeste 0 -- -- 84
2020-03-20 03:00:00 12.6 15 Noroeste 23 Noroeste 0 -- -- 86
2020-03-20 02:00:00 11.7 11 Noroeste 16 Noroeste 0 -- -- 84
2020-03-20 01:00:00 12.7 10 Noroeste 20 Norte 0 -- -- 79
2020-03-20 00:00:00 13.2 13 Noroeste 18 Noroeste 0 -- -- 78
2020-03-19 23:00:00 13.7 12 Norte 19 Noroeste 0 -- -- 74
2020-03-19 22:00:00 14.2 12 Noroeste 25 Norte 0 -- -- 71
2020-03-19 21:00:00 15.5 13 Norte 35 Nordeste 0 -- -- 74
2020-03-19 20:00:00 15.9 26 Nordeste 36 Nordeste 0 -- -- 78
2020-03-19 19:00:00 16 27 Nordeste 38 Nordeste 0 -- -- 79
2020-03-19 18:00:00 16.3 25 Nordeste 36 Nordeste 0 -- -- 81
2020-03-19 17:00:00 16.4 26 Nordeste 37 Nordeste 0 -- -- 80
2020-03-19 16:00:00 16.7 19 Nordeste 31 Nordeste 0 -- -- 80
2020-03-19 15:00:00 16.9 20 Nordeste 31 Nordeste 0 -- -- 79
2020-03-19 14:00:00 16.5 19 Nordeste 31 Nordeste 0 -- -- 79
2020-03-19 13:00:00 16.2 23 Nordeste 33 Norte 0 -- -- 77
2020-03-19 12:00:00 16 19 Norte 33 Nordeste 0 -- -- 76
2020-03-19 11:00:00 15.8 21 Norte 36 Nordeste 0 -- -- 74
2020-03-19 10:00:00 15.9 23 Norte 38 Norte 0 -- -- 76
2020-03-19 09:00:00 15.3 14 Norte 24 Norte 0 -- -- 71
2020-03-19 08:00:00 15 13 Norte 26 Norte 0 -- -- 72
2020-03-19 07:00:00 14.9 16 Norte 26 Norte 0 -- -- 70
2020-03-19 06:00:00 15.1 14 Norte 22 Noroeste 0 -- -- 70
2020-03-19 05:00:00 15.2 11 Norte 22 Norte 0 -- -- 70
2020-03-19 04:00:00 15.6 15 Norte 28 Norte 0 -- -- 74
2020-03-19 03:00:00 15.7 22 Norte 34 Nordeste 0 -- -- 77
2020-03-19 02:00:00 15.9 12 Norte 34 Norte 0 -- -- 77
2020-03-19 01:00:00 16 21 Norte 33 Nordeste 0 -- -- 76
2020-03-19 00:00:00 16 18 Norte 31 Norte 0 -- -- 75
2020-03-18 23:00:00 15.9 17 Norte 30 Norte 0 -- -- 74
2020-03-18 22:00:00 15.9 20 Norte 37 Norte 0 -- -- 79
2020-03-18 21:00:00 15.8 25 Nordeste 39 Nordeste 0 -- -- 84
2020-03-18 20:00:00 15.9 29 Nordeste 42 Nordeste 0 -- -- 86
2020-03-18 19:00:00 16.2 28 Nordeste 43 Nordeste 0 -- -- 84
2020-03-18 18:00:00 16.4 33 Nordeste 45 Nordeste 0 -- -- 83
2020-03-18 17:00:00 16.8 34 Nordeste 41 Nordeste 0 -- -- 81
2020-03-18 16:00:00 17 28 Nordeste 39 Nordeste 0 -- -- 79
2020-03-18 15:00:00 17.1 28 Nordeste 36 Nordeste 0 -- -- 80
2020-03-18 14:00:00 17.4 22 Nordeste 30 Nordeste 0 -- -- 77
2020-03-18 13:00:00 17.2 21 Nordeste 32 Nordeste 0 -- -- 79
2020-03-18 12:00:00 16.7 24 Nordeste 41 Norte 0 -- -- 79
2020-03-18 11:00:00 16.3 28 Norte 45 Nordeste 0 -- -- 80
2020-03-18 10:00:00 16.3 30 Nordeste 46 Nordeste 0 -- -- 78
2020-03-18 09:00:00 16.1 23 Norte 42 Nordeste 0 -- -- 77
2020-03-18 08:00:00 15.9 28 Norte 47 Norte 0 -- -- 78
2020-03-18 07:00:00 15.9 28 Nordeste 42 Norte 0 -- -- 79
2020-03-18 06:00:00 15.9 25 Norte 42 Nordeste 0 -- -- 78
2020-03-18 05:00:00 15.8 29 Nordeste 44 Nordeste 0 -- -- 80
2020-03-18 04:00:00 15.9 27 Nordeste 44 Norte 0 -- -- 82
2020-03-18 03:00:00 15.7 30 Nordeste 50 Nordeste 0 -- -- 85
2020-03-18 02:00:00 15.8 33 Nordeste 44 Nordeste 0 -- -- 84
2020-03-18 01:00:00 15.8 30 Nordeste 48 Nordeste 0 -- -- 85
2020-03-18 00:00:00 16 32 Nordeste 56 Nordeste 0 -- -- 85
2020-03-17 23:00:00 16 39 Nordeste 51 Nordeste 0 -- -- 87
2020-03-17 22:00:00 16.1 36 Nordeste 53 Nordeste 0 -- -- 89
2020-03-17 21:00:00 16.3 31 Nordeste 51 Nordeste 0 -- -- 88
2020-03-17 20:00:00 16.3 28 Nordeste 38 Nordeste 0 -- -- 88
2020-03-17 19:00:00 16.4 23 Nordeste 36 Nordeste 0 -- -- 86
2020-03-17 18:00:00 17 12 Norte 19 Nordeste 0 -- -- 73
2020-03-17 17:00:00 16.5 4 Noroeste 8 Norte 0 -- -- 63
2020-03-17 16:00:00 16 5 Norte 18 Nordeste 0 -- -- 69
2020-03-17 15:00:00 15.9 13 Nordeste 22 Nordeste 0 -- -- 77
2020-03-17 14:00:00 15.8 15 Nordeste 23 Nordeste 0 -- -- 77
2020-03-17 13:00:00 15.7 15 Nordeste 25 Nordeste 0 -- -- 76
2020-03-17 12:00:00 15.4 17 Nordeste 36 Nordeste 0 -- -- 79
2020-03-17 11:00:00 14.7 30 Nordeste 39 Este 0 -- -- 79
2020-03-17 10:00:00 13.8 8 Noroeste 22 Oeste 0 -- -- 65
2020-03-17 09:00:00 11.1 15 Oeste 23 Oeste 0 -- -- 69
2020-03-17 08:00:00 9.1 13 Oeste 19 Oeste 0 -- -- 73
2020-03-17 07:00:00 8.4 12 Noroeste 17 Noroeste 0 -- -- 71
2020-03-17 06:00:00 8.4 11 Noroeste 16 Noroeste 0 -- -- 72
2020-03-17 05:00:00 9.4 11 Oeste 15 Oeste 0 -- -- 65
2020-03-17 04:00:00 9.8 11 Oeste 15 Oeste 0 -- -- 66
2020-03-17 03:00:00 10.7 12 Oeste 15 Oeste 0 -- -- 66
2020-03-17 02:00:00 10.8 10 Noroeste 12 Noroeste 0 -- -- 70
2020-03-17 01:00:00 11.2 9 Noroeste 18 Noroeste 0 -- -- 69
2020-03-17 00:00:00 11.2 13 Noroeste 21 Noroeste 0 -- -- 67
2020-03-16 23:00:00 11.6 16 Noroeste 24 Norte 0 -- -- 62
2020-03-16 22:00:00 12.3 16 Noroeste 29 Norte 0 -- -- 59
2020-03-16 21:00:00 12.7 22 Noroeste 36 Nordeste 0 -- -- 62
2020-03-16 20:00:00 15 24 Nordeste 37 Nordeste 0 -- -- 76
2020-03-16 19:00:00 15.8 26 Nordeste 34 Nordeste 0 -- -- 72
2020-03-16 18:00:00 18.8 3 Este 14 Sudeste 0 -- -- 38
2020-03-16 17:00:00 17.4 8 Sudeste 22 Sudeste 0 -- -- 43
2020-03-16 16:00:00 16.3 11 Sudeste 15 Sudeste 0 -- -- 68
2020-03-16 15:00:00 16.7 15 Este 19 Norte 0 -- -- 59
2020-03-16 14:00:00 16.2 14 Noroeste 30 Noroeste 0 -- -- 41
2020-03-16 13:00:00 14.9 23 Noroeste 46 Noroeste 0 -- -- 49
2020-03-16 12:00:00 13.6 30 Noroeste 48 Noroeste 0 -- -- 59
2020-03-16 11:00:00 16.6 21 Oeste 37 Noroeste 0 -- -- 64
2020-03-16 10:00:00 17 4 Sur 18 Sur 0 -- -- 77
2020-03-16 09:00:00 16.1 14 Sur 23 Sudeste 0 -- -- 80
2020-03-16 08:00:00 14.7 3 Noroeste 9 Sur 0 -- -- 89
2020-03-16 07:00:00 13.7 4 Oeste 21 Este 0 -- -- 90
2020-03-16 06:00:00 14.4 10 Sur 17 Sudoeste 0 -- -- 90
2020-03-16 05:00:00 13.9 9 Sudoeste 15 Sudoeste 0 -- -- 90
2020-03-16 04:00:00 14.6 8 Oeste 10 Oeste 0 -- -- 87
2020-03-16 03:00:00 15.1 6 Oeste 10 Oeste 0 -- -- 86
2020-03-16 02:00:00 15.4 4 Oeste 11 Sur 0 -- -- 84
2020-03-16 01:00:00 15.4 10 Sur 21 Sur 0 -- -- 84
2020-03-16 00:00:00 15.7 16 Sudeste 20 Sudeste 0 -- -- 88
2020-03-15 23:00:00 15.8 12 Sudeste 22 Sudeste 0 -- -- 86
2020-03-15 22:00:00 15.8 19 Sudeste 22 Sudeste 0 -- -- 85
2020-03-15 21:00:00 15.9 12 Este 15 Norte 0 -- -- 83
2020-03-15 20:00:00 15.8 14 Norte 21 Norte 0 -- -- 82
2020-03-15 19:00:00 15.9 6 Nordeste 13 Este 0 -- -- 81
2020-03-15 18:00:00 16 9 Este 19 Sudeste 0 -- -- 84
2020-03-15 17:00:00 16 14 Sudeste 27 Sudeste 0 -- -- 84
2020-03-15 16:00:00 16.3 23 Sudeste 26 Sudeste 0 -- -- 82
2020-03-15 15:00:00 17 18 Sudeste 21 Sudeste 0 -- -- 76
2020-03-15 14:00:00 16.7 16 Este 19 Este 0 -- -- 79
2020-03-15 13:00:00 17.1 15 Este 18 Este 0 -- -- 74
2020-03-15 12:00:00 17.7 7 Nordeste 13 Nordeste 0 -- -- 75
2020-03-15 11:00:00 17.7 9 Nordeste 12 Nordeste 0 -- -- 75
2020-03-15 10:00:00 15.7 5 Norte 9 Norte 0 -- -- 80
2020-03-15 09:00:00 14 7 Noroeste 14 Noroeste 0 -- -- 86
2020-03-15 08:00:00 13.2 10 Noroeste 12 Oeste 0 -- -- 89
2020-03-15 07:00:00 13.7 6 Noroeste 11 Norte 0 -- -- 88
2020-03-15 06:00:00 13.9 8 Noroeste 12 Noroeste 0 -- -- 90
2020-03-15 05:00:00 14.5 7 Noroeste 17 Nordeste 0 -- -- 88
2020-03-15 04:00:00 15.4 13 Nordeste 21 Nordeste 0 -- -- 87
2020-03-15 03:00:00 15.7 10 Nordeste 15 Nordeste 0 -- -- 89
2020-03-15 02:00:00 15.9 6 Nordeste 12 Nordeste 0 -- -- 85
2020-03-15 01:00:00 15.8 4 Norte 10 Nordeste 0 -- -- 83
2020-03-15 00:00:00 16.1 7 Nordeste 13 Norte 0 -- -- 84
2020-03-14 23:00:00 16.2 9 Nordeste 14 Nordeste 0 -- -- 83
2020-03-14 22:00:00 16.3 4 Nordeste 9 Nordeste 0 -- -- 80
2020-03-14 21:00:00 16.2 3 Nordeste 14 Nordeste 0 -- -- 82
2020-03-14 20:00:00 16.2 7 Nordeste 14 Este 0 -- -- 84
2020-03-14 19:00:00 16.3 12 Este 14 Este 0 -- -- 85
2020-03-14 18:00:00 17.1 12 Este 15 Este 0 -- -- 83
2020-03-14 17:00:00 16.6 13 Este 15 Este 0 -- -- 84
2020-03-14 16:00:00 17.4 13 Este 15 Este 0 -- -- 84
2020-03-14 15:00:00 17 14 Este 16 Este 0 -- -- 84
2020-03-14 14:00:00 17.3 14 Este 17 Sudeste 0 -- -- 82
2020-03-14 13:00:00 17.7 13 Este 15 Este 0 -- -- 79
2020-03-14 12:00:00 17.5 9 Este 12 Este 0 -- -- 78
2020-03-14 11:00:00 17.9 3 Nordeste 12 Nordeste 0 -- -- 72
2020-03-14 10:00:00 17.4 2 Norte 17 Oeste 0 -- -- 73
2020-03-14 09:00:00 14.1 15 Oeste 19 Oeste 0 -- -- 78
2020-03-14 08:00:00 13.5 5 Oeste 14 Oeste 0 -- -- 81
2020-03-14 07:00:00 13.6 5 Oeste 13 Noroeste 0 -- -- 81
2020-03-14 06:00:00 13.6 5 Noroeste 12 Oeste 0 -- -- 82
2020-03-14 05:00:00 13.6 10 Noroeste 12 Noroeste 0 -- -- 84
2020-03-14 04:00:00 13.8 7 Oeste 11 Oeste 0 -- -- 82
2020-03-14 03:00:00 14 6 Noroeste 11 Oeste 0 -- -- 82
2020-03-14 02:00:00 14.4 9 Oeste 12 Oeste 0 -- -- 80
2020-03-14 01:00:00 15.3 3 Noroeste 4 Oeste 0 -- -- 81
2020-03-14 00:00:00 15.7 3 Oeste 10 Oeste 0 -- -- 80
2020-03-13 23:00:00 15.8 6 Oeste 8 Oeste 0 -- -- 80
2020-03-13 22:00:00 16.1 4 Oeste 7 Oeste 0 -- -- 80
2020-03-13 21:00:00 16 4 Noroeste 5 Oeste 0 -- -- 82
2020-03-13 20:00:00 16 3 Sur 8 Sudeste 0 -- -- 85
2020-03-13 19:00:00 16.4 5 Sudeste 8 Sudeste 0 -- -- 83
2020-03-13 18:00:00 17 3 Este 13 Este 0 -- -- 79
2020-03-13 17:00:00 16.8 9 Este 18 Este 0 -- -- 81
2020-03-13 16:00:00 17.2 13 Este 18 Este 0 -- -- 82
2020-03-13 15:00:00 17.9 9 Sudeste 14 Sudeste 0 -- -- 79
2020-03-13 14:00:00 18.2 6 Sudeste 10 Sudeste 0 -- -- 79
2020-03-13 13:00:00 18.9 3 Sudeste 13 Este 0 -- -- 78
2020-03-13 12:00:00 17.6 9 Este 12 Este 0 -- -- 85
2020-03-13 11:00:00 18.7 8 Nordeste 12 Norte 0 -- -- 77
2020-03-13 10:00:00 17.4 10 Nordeste 14 Nordeste 0 -- -- 75
2020-03-13 09:00:00 16.5 4 Noroeste 13 Oeste 0 -- -- 62
2020-03-13 08:00:00 13.5 5 Noroeste 12 Oeste 0 -- -- 71
2020-03-13 07:00:00 14.9 4 Oeste 11 Oeste 0 -- -- 63
2020-03-13 06:00:00 14.4 5 Oeste 13 Oeste 0 -- -- 66
2020-03-13 05:00:00 15.3 6 Oeste 16 Oeste 0 -- -- 61
2020-03-13 04:00:00 14.2 14 Oeste 17 Oeste 0 -- -- 66
2020-03-13 03:00:00 15.6 9 Oeste 14 Oeste 0 -- -- 62
2020-03-13 02:00:00 15.2 7 Oeste 12 Oeste 0 -- -- 65
2020-03-13 01:00:00 16.2 5 Oeste 10 Oeste 0 -- -- 60
2020-03-13 00:00:00 15.7 6 Sudoeste 8 Sudoeste 0 -- -- 63
2020-03-12 23:00:00 15.8 5 Oeste 10 Oeste 0 -- -- 65
2020-03-12 22:00:00 17.5 3 Oeste 6 Noroeste 0 -- -- 57
2020-03-12 21:00:00 18.1 3 Norte 5 Norte 0 -- -- 57
2020-03-12 20:00:00 18.3 3 Norte 5 Norte 0 -- -- 59
2020-03-12 19:00:00 19 0 Calma 5 Norte 0 -- -- 58
2020-03-12 18:00:00 19.8 0 Calma 6 Sudeste 0 -- -- 63
2020-03-12 17:00:00 18 5 Sudeste 12 Sudeste 0 -- -- 73
2020-03-12 16:00:00 18.2 12 Sudeste 14 Sudeste 0 -- -- 73
2020-03-12 15:00:00 19.4 6 Sudeste 9 Sudeste 0 -- -- 62
2020-03-12 14:00:00 20.3 6 Sudeste 13 Este 0 -- -- 57
2020-03-12 13:00:00 20.5 6 Este 13 Nordeste 0 -- -- 55
2020-03-12 12:00:00 19.1 7 Nordeste 10 Nordeste 0 -- -- 70
2020-03-12 11:00:00 17.8 5 Norte 11 Noroeste 0 -- -- 69
2020-03-12 10:00:00 18.1 9 Noroeste 13 Noroeste 0 -- -- 58
2020-03-12 09:00:00 15.3 8 Noroeste 15 Oeste 0 -- -- 67
2020-03-12 08:00:00 13.2 11 Noroeste 15 Noroeste 0 -- -- 71
2020-03-12 07:00:00 12.7 6 Noroeste 13 Noroeste 0 -- -- 74
2020-03-12 06:00:00 12.3 5 Noroeste 12 Noroeste 0 -- -- 77
2020-03-12 05:00:00 13.5 10 Noroeste 17 Noroeste 0 -- -- 74
2020-03-12 04:00:00 13.7 10 Noroeste 16 Noroeste 0 -- -- 76
2020-03-12 03:00:00 14.3 8 Oeste 12 Oeste 0 -- -- 81
2020-03-12 02:00:00 14 7 Oeste 10 Oeste 0 -- -- 84
2020-03-12 01:00:00 14.3 3 Noroeste 5 Noroeste 0 -- -- 83
2020-03-12 00:00:00 14.6 0 Calma 6 Oeste 0 -- -- 83
2020-03-11 23:00:00 14.8 3 Noroeste 10 Oeste 0 -- -- 81
2020-03-11 22:00:00 14.7 4 Noroeste 7 Noroeste 0 -- -- 85
2020-03-11 21:00:00 15.9 6 Oeste 7 Noroeste 0 -- -- 85
2020-03-11 20:00:00 16.4 0 Calma 8 Nordeste 0 -- -- 87
2020-03-11 19:00:00 17.2 7 Nordeste 16 Este 0 -- -- 81
2020-03-11 18:00:00 17.9 14 Este 19 Este 0 -- -- 77
2020-03-11 17:00:00 17.5 16 Este 21 Este 0 -- -- 76
2020-03-11 16:00:00 17.6 16 Este 20 Este 0 -- -- 72
2020-03-11 15:00:00 17.5 13 Este 23 Sudeste 0 -- -- 75
2020-03-11 14:00:00 17 18 Sudeste 23 Sudeste 0 -- -- 74
2020-03-11 13:00:00 16.9 15 Sudeste 18 Sudeste 0 -- -- 81
2020-03-11 12:00:00 16.6 12 Sudeste 14 Sudeste 0 -- -- 81
2020-03-11 11:00:00 16 12 Sur 15 Sur 0 -- -- 78
2020-03-11 10:00:00 17.6 3 Este 10 Oeste 0 -- -- 69
2020-03-11 09:00:00 14.9 8 Oeste 11 Oeste 0 -- -- 68
2020-03-11 08:00:00 13.4 4 Noroeste 8 Oeste 0 -- -- 74
2020-03-11 07:00:00 13.3 4 Oeste 8 Sudoeste 0 -- -- 73
2020-03-11 06:00:00 13 6 Noroeste 10 Oeste 0 -- -- 75
2020-03-11 05:00:00 13.2 4 Oeste 13 Oeste 0 -- -- 75
2020-03-11 04:00:00 13.2 0 Calma 15 Oeste 0 -- -- 73
2020-03-11 03:00:00 13.4 11 Oeste 14 Oeste 0 -- -- 73
2020-03-11 02:00:00 12.8 9 Noroeste 14 Oeste 0 -- -- 77
2020-03-11 01:00:00 13.6 4 Oeste 9 Oeste 0 -- -- 72
2020-03-11 00:00:00 14.2 2 Noroeste 8 Oeste 0 -- -- 78
2020-03-10 23:00:00 14.3 4 Oeste 15 Noroeste 0 -- -- 78
2020-03-10 22:00:00 15.2 12 Noroeste 14 Noroeste 0 -- -- 78
2020-03-10 21:00:00 15.3 8 Oeste 11 Oeste 0 -- -- 78
2020-03-10 20:00:00 16 10 Sur 41 Sur 0 -- -- 74
2020-03-10 19:00:00 16 27 Sur 35 Sur 0 -- -- 81
2020-03-10 18:00:00 16.1 27 Sudeste 35 Sudeste 0 -- -- 83
2020-03-10 17:00:00 16.1 27 Sudeste 31 Sudeste 0 -- -- 83
2020-03-10 16:00:00 16.1 26 Sudeste 28 Sudeste 0 -- -- 83
2020-03-10 15:00:00 16.1 23 Sudeste 25 Sudeste 0 -- -- 82
2020-03-10 14:00:00 16.3 18 Sudeste 21 Sudeste 0 -- -- 83
2020-03-10 13:00:00 16.3 15 Sudeste 21 Este 0 -- -- 82
2020-03-10 12:00:00 16.8 18 Este 21 Este 0 -- -- 76
2020-03-10 11:00:00 17.9 13 Nordeste 17 Nordeste 0 -- -- 68
2020-03-10 10:00:00 17.7 8 Nordeste 12 Nordeste 0 -- -- 61
2020-03-10 09:00:00 15.9 4 Noroeste 11 Oeste 0 -- -- 48
2020-03-10 08:00:00 14.2 7 Noroeste 15 Noroeste 0 -- -- 60
2020-03-10 07:00:00 14.9 6 Noroeste 17 Noroeste 0 -- -- 50
2020-03-10 06:00:00 15.2 13 Oeste 21 Oeste 0 -- -- 52
2020-03-10 05:00:00 13.5 6 Noroeste 13 Noroeste 0 -- -- 63
2020-03-10 04:00:00 13.7 4 Noroeste 12 Oeste 0 -- -- 62
2020-03-10 03:00:00 13.6 7 Noroeste 17 Noroeste 0 -- -- 65
2020-03-10 02:00:00 13.4 11 Noroeste 18 Oeste 0 -- -- 68
2020-03-10 01:00:00 14.8 5 Oeste 12 Oeste 0 -- -- 63
2020-03-10 00:00:00 14.9 11 Oeste 19 Oeste 0 -- -- 64
2020-03-09 23:00:00 14.5 9 Oeste 12 Sudoeste 0 -- -- 65
2020-03-09 22:00:00 15.7 0 Calma 11 Nordeste 0 -- -- 61
2020-03-09 21:00:00 16.5 15 Sudoeste 20 Sudoeste 0 -- -- 60
2020-03-09 20:00:00 16.5 17 Sudoeste 25 Sudeste 0 -- -- 61
2020-03-09 19:00:00 17.1 26 Sur 35 Sur 0 -- -- 65
2020-03-09 18:00:00 16.4 24 Sudeste 30 Sudeste 0 -- -- 77
2020-03-09 17:00:00 17 19 Este 27 Sudeste 0 -- -- 79
2020-03-09 16:00:00 16.7 24 Sudeste 28 Sudeste 0 -- -- 75
2020-03-09 15:00:00 16.9 23 Sudeste 30 Sudeste 0 -- -- 72
2020-03-09 14:00:00 16.6 25 Sudeste 29 Sudeste 0 -- -- 75
2020-03-09 13:00:00 16.6 25 Sudeste 28 Sudeste 0 -- -- 75
2020-03-09 12:00:00 16.4 25 Sudeste 28 Sudeste 0 -- -- 76
2020-03-09 11:00:00 18.6 4 Este 22 Este 0 -- -- 64
2020-03-09 10:00:00 17.8 13 Nordeste 23 Norte 0 -- -- 59
2020-03-09 09:00:00 16 15 Norte 29 Norte 0 -- -- 53
2020-03-09 08:00:00 18.1 20 Norte 29 Noroeste 0 -- -- 38
2020-03-09 07:00:00 14.4 11 Sudoeste 19 Sudoeste 0 -- -- 49
2020-03-09 06:00:00 15.4 3 Norte 13 Oeste 0 -- -- 51
2020-03-09 05:00:00 15.2 6 Oeste 17 Oeste 0 -- -- 46
2020-03-09 04:00:00 18.4 12 Oeste 29 Oeste 0 -- -- 34
2020-03-09 03:00:00 17.4 12 Noroeste 24 Oeste 0 -- -- 34
2020-03-09 02:00:00 17.9 6 Oeste 17 Oeste 0 -- -- 39
2020-03-09 01:00:00 18.1 10 Oeste 18 Noroeste 0 -- -- 40
2020-03-09 00:00:00 16 8 Sudoeste 13 Sudeste 0 -- -- 59
2020-03-08 23:00:00 16.8 4 Oeste 14 Oeste 0 -- -- 51
2020-03-08 22:00:00 17.2 3 Noroeste 17 Oeste 0 -- -- 56
2020-03-08 21:00:00 18.3 15 Oeste 32 Oeste 0 -- -- 50
2020-03-08 20:00:00 18.5 10 Sudoeste 21 Oeste 0 -- -- 49
2020-03-08 19:00:00 18.8 5 Norte 10 Nordeste 0 -- -- 50
2020-03-08 18:00:00 18.5 13 Sur 35 Sur 0 -- -- 60
2020-03-08 17:00:00 18.3 34 Sur 50 Sur 0 -- -- 59
2020-03-08 16:00:00 16.8 38 Sur 50 Sur 0 -- -- 76
2020-03-08 15:00:00 16.5 41 Sudeste 50 Sudeste 0 -- -- 74
2020-03-08 14:00:00 16.3 35 Sur 43 Sur 0 -- -- 78
2020-03-08 13:00:00 15.8 18 Sudeste 25 Sudeste 0 -- -- 83
2020-03-08 12:00:00 15.6 20 Sudeste 23 Sudeste 0 -- -- 73
2020-03-08 11:00:00 15.1 13 Sur 18 Sur 0 -- -- 69
2020-03-08 10:00:00 14.7 5 Noroeste 12 Oeste 0 -- -- 56
2020-03-08 09:00:00 12.7 7 Noroeste 11 Noroeste 0 -- -- 57
2020-03-08 08:00:00 10.9 8 Noroeste 17 Oeste 0 -- -- 64
2020-03-08 07:00:00 11.9 5 Noroeste 15 Sudoeste 0 -- -- 62
2020-03-08 06:00:00 11.2 5 Oeste 15 Noroeste 0 -- -- 64
2020-03-08 05:00:00 10.8 13 Noroeste 22 Oeste 0 -- -- 66
2020-03-08 04:00:00 12.6 13 Sudoeste 18 Sudoeste 0 -- -- 65
2020-03-08 03:00:00 13.3 10 Oeste 18 Oeste 0 -- -- 65
2020-03-08 02:00:00 12.9 7 Oeste 14 Oeste 0 -- -- 68
2020-03-08 01:00:00 12.9 12 Oeste 23 Oeste 0 -- -- 71
2020-03-08 00:00:00 14.3 16 Oeste 30 Sudoeste 0 -- -- 66
2020-03-07 23:00:00 13.4 12 Oeste 28 Sudoeste 0 -- -- 71
2020-03-07 22:00:00 15 21 Oeste 29 Sudoeste 0 -- -- 65
2020-03-07 21:00:00 14.6 15 Sudoeste 27 Sudoeste 0 -- -- 70
2020-03-07 20:00:00 15.2 16 Sudoeste 23 Sudoeste 0 -- -- 67
2020-03-07 19:00:00 16.6 8 Sudoeste 31 Sur 0 -- -- 60
2020-03-07 18:00:00 16.7 26 Sur 40 Sur 0 -- -- 66
2020-03-07 17:00:00 17.4 24 Sur 41 Sudeste 0 -- -- 59
2020-03-07 16:00:00 15.7 36 Sudeste 43 Sudeste 0 -- -- 74
2020-03-07 15:00:00 15.6 33 Sudeste 39 Sudeste 0 -- -- 61
2020-03-07 14:00:00 15.5 26 Sudeste 31 Sudeste 0 -- -- 62
2020-03-07 13:00:00 16.7 17 Sudeste 24 Sudeste 0 -- -- 49
2020-03-07 12:00:00 16.9 14 Este 24 Este 0 -- -- 49
2020-03-07 11:00:00 17 14 Este 22 Nordeste 0 -- -- 47
2020-03-07 10:00:00 16.5 8 Norte 25 Norte 0 -- -- 37
2020-03-07 09:00:00 14 8 Norte 21 Noroeste 0 -- -- 42
2020-03-07 08:00:00 12.4 7 Noroeste 25 Norte 0 -- -- 47
2020-03-07 07:00:00 12.7 13 Norte 26 Noroeste 0 -- -- 48
2020-03-07 06:00:00 12 13 Noroeste 20 Noroeste 0 -- -- 54
2020-03-07 05:00:00 12.5 16 Noroeste 20 Noroeste 0 -- -- 52
2020-03-07 04:00:00 11.9 10 Norte 14 Noroeste 0 -- -- 54
2020-03-07 03:00:00 12.6 10 Noroeste 17 Noroeste 0 -- -- 53
2020-03-07 02:00:00 14.2 13 Noroeste 21 Noroeste 0 -- -- 47
2020-03-07 01:00:00 14.9 9 Noroeste 18 Noroeste 0 -- -- 47
2020-03-07 00:00:00 15.7 6 Noroeste 21 Norte 0 -- -- 43
2020-03-06 23:00:00 16.1 12 Noroeste 19 Noroeste 0 -- -- 42
2020-03-06 22:00:00 16.6 10 Oeste 31 Noroeste 0 -- -- 41
2020-03-06 21:00:00 17.3 18 Noroeste 29 Noroeste 0 -- -- 38
2020-03-06 20:00:00 17.6 11 Oeste 40 Noroeste 0 -- -- 38
2020-03-06 19:00:00 18.5 20 Noroeste 46 Oeste 0 -- -- 38
2020-03-06 18:00:00 19.2 31 Noroeste 57 Noroeste 0 -- -- 36
2020-03-06 17:00:00 19.4 35 Noroeste 60 Noroeste 0 -- -- 35
2020-03-06 16:00:00 19.8 31 Noroeste 56 Oeste 0 -- -- 33
2020-03-06 15:00:00 20 30 Noroeste 59 Noroeste 0 -- -- 34
2020-03-06 14:00:00 19.4 24 Noroeste 51 Noroeste 0 -- -- 37
2020-03-06 13:00:00 16.4 23 Sudeste 42 Noroeste 0 -- -- 73
2020-03-06 12:00:00 18.3 36 Noroeste 49 Noroeste 0 -- -- 37
2020-03-06 11:00:00 17.8 14 Oeste 42 Noroeste 0 -- -- 38
2020-03-06 10:00:00 16 26 Noroeste 48 Noroeste 0 -- -- 44
2020-03-06 09:00:00 15.3 24 Noroeste 36 Oeste 0 -- -- 45
2020-03-06 08:00:00 14.6 20 Noroeste 33 Oeste 0 -- -- 47
2020-03-06 07:00:00 14.7 18 Noroeste 46 Oeste 0 -- -- 47
2020-03-06 06:00:00 15.3 25 Oeste 65 Noroeste 0 -- -- 45
2020-03-06 05:00:00 16 41 Noroeste 73 Noroeste 0 -- -- 44
2020-03-06 04:00:00 16.5 24 Oeste 50 Oeste 0 -- -- 43
2020-03-06 03:00:00 17.2 23 Noroeste 45 Oeste 0 -- -- 42
2020-03-06 02:00:00 17.3 25 Oeste 42 Oeste 0 -- -- 42
2020-03-06 01:00:00 17 8 Oeste 26 Oeste 0 -- -- 42
2020-03-06 00:00:00 17.9 15 Oeste 47 Oeste 0 -- -- 40
2020-03-05 23:00:00 18.9 29 Noroeste 57 Noroeste 0 -- -- 41
2020-03-05 22:00:00 18.9 30 Noroeste 57 Noroeste 0 -- -- 44
2020-03-05 21:00:00 19.2 26 Noroeste 69 Noroeste 0 -- -- 44
2020-03-05 20:00:00 20.3 38 Noroeste 60 Oeste 0 -- -- 46
2020-03-05 19:00:00 21.4 30 Noroeste 55 Noroeste 0 -- -- 47
2020-03-05 18:00:00 22.3 28 Noroeste 59 Noroeste 0 -- -- 47
2020-03-05 17:00:00 23.5 14 Noroeste 35 Sur 0 -- -- 46
2020-03-05 16:00:00 19.4 22 Sur 35 Sur 0 -- -- 68
2020-03-05 15:00:00 17.4 31 Sudeste 39 Sudeste 0 -- -- 78
2020-03-05 14:00:00 17.9 26 Sur 39 Sur 0 -- -- 75
2020-03-05 13:00:00 16.7 22 Sudeste 31 Sur 0 -- -- 80
2020-03-05 12:00:00 16.6 25 Sur 28 Sur 0 -- -- 78
2020-03-05 11:00:00 17.8 11 Sudeste 14 Sudeste 0 -- -- 64
2020-03-05 10:00:00 18.2 6 Sudoeste 20 Oeste 0 -- -- 60
2020-03-05 09:00:00 15.7 12 Oeste 22 Sudoeste 0 -- -- 65
2020-03-05 08:00:00 13.3 16 Oeste 24 Oeste 0 -- -- 72
2020-03-05 07:00:00 13.8 12 Oeste 18 Oeste 0 -- -- 72
2020-03-05 06:00:00 12.6 4 Noroeste 11 Oeste 0 -- -- 78
2020-03-05 05:00:00 12.6 5 Oeste 12 Oeste 0 -- -- 80
2020-03-05 04:00:00 14 6 Oeste 10 Oeste 0 -- -- 75
2020-03-05 03:00:00 13.7 4 Sudoeste 6 Sudoeste 0 -- -- 80
2020-03-05 02:00:00 13.9 3 Noroeste 7 Noroeste 0 -- -- 81
2020-03-05 01:00:00 14.1 3 Noroeste 4 Sudoeste 0 -- -- 88
2020-03-05 00:00:00 15.1 2 Sur 10 Sur 0 -- -- 90
2020-03-04 23:00:00 14.6 0 Calma 7 Oeste 0 -- -- 90
2020-03-04 22:00:00 15.4 0 Calma 5 Nordeste 0 -- -- 96
2020-03-04 21:00:00 15.6 3 Norte 8 Nordeste 0 -- -- 94
2020-03-04 20:00:00 15.9 3 Norte 8 Norte 0 -- -- 93
2020-03-04 19:00:00 16.2 4 Norte 13 Nordeste 0 -- -- 91
2020-03-04 18:00:00 17.3 14 Nordeste 24 Nordeste 0 -- -- 88
2020-03-04 17:00:00 16.5 15 Este 32 Sur 0 -- -- 92
2020-03-04 16:00:00 16.3 24 Sur 28 Sur 0 -- -- 91
2020-03-04 15:00:00 16.1 26 Sur 30 Sur 0 -- -- 91
2020-03-04 14:00:00 16.3 24 Sur 32 Sur 0 -- -- 91
2020-03-04 13:00:00 16.9 28 Sur 32 Sur 0 -- -- 84
2020-03-04 12:00:00 16.6 19 Sur 23 Sur 0 -- -- 85
2020-03-04 11:00:00 16.7 16 Sudeste 22 Sur 0 -- -- 81
2020-03-04 10:00:00 16.7 13 Sur 24 Sudoeste 0 -- -- 76
2020-03-04 09:00:00 17.4 19 Sudoeste 26 Sudoeste 0 -- -- 61
2020-03-04 08:00:00 17.9 10 Oeste 23 Oeste 0 -- -- 60
2020-03-04 07:00:00 17.6 12 Oeste 19 Oeste 0 -- -- 58
2020-03-04 06:00:00 18.3 10 Oeste 14 Oeste 0 -- -- 56
2020-03-04 05:00:00 18.8 5 Sudoeste 22 Sur 0 -- -- 59
2020-03-04 04:00:00 20.6 21 Oeste 51 Noroeste 0 -- -- 51
2020-03-04 03:00:00 20.4 31 Noroeste 49 Noroeste 0 -- -- 51
2020-03-04 02:00:00 18.3 7 Sudoeste 28 Noroeste 0 -- -- 59
2020-03-04 01:00:00 20.3 21 Oeste 31 Oeste 0 -- -- 50
2020-03-04 00:00:00 20.4 12 Oeste 38 Oeste 0 -- -- 47
2020-03-03 23:00:00 21 20 Oeste 58 Oeste 0 -- -- 47
2020-03-03 22:00:00 20.8 32 Oeste 50 Noroeste 0 -- -- 47
2020-03-03 21:00:00 20.8 25 Oeste 58 Oeste 0 -- -- 47
2020-03-03 20:00:00 20.6 28 Noroeste 53 Oeste 0 -- -- 45
2020-03-03 19:00:00 20.8 32 Oeste 71 Oeste 0 -- -- 44
2020-03-03 18:00:00 22 27 Noroeste 47 Noroeste 0 -- -- 39
2020-03-03 17:00:00 23 31 Noroeste 62 Noroeste 0 -- -- 34
2020-03-03 16:00:00 23.7 37 Noroeste 63 Noroeste 0 -- -- 33
2020-03-03 15:00:00 24.2 40 Noroeste 72 Oeste 0 -- -- 34
2020-03-03 14:00:00 17.5 15 Sur 37 Sudeste 0 -- -- 66
2020-03-03 13:00:00 20 13 Sudeste 45 Sur 0 -- -- 44
2020-03-03 12:00:00 17.4 12 Sur 27 Sudeste 0 -- -- 60
2020-03-03 11:00:00 16.3 9 Este 16 Este 0 -- -- 74
2020-03-03 10:00:00 16.3 8 Sudoeste 17 Sudoeste 0 -- -- 55
2020-03-03 09:00:00 14.2 12 Oeste 19 Oeste 0 -- -- 60
2020-03-03 08:00:00 14.1 6 Sudoeste 21 Sudoeste 0 -- -- 64
2020-03-03 07:00:00 13.7 12 Oeste 20 Sudoeste 0 -- -- 53
2020-03-03 06:00:00 13.1 10 Oeste 17 Oeste 0 -- -- 52
2020-03-03 05:00:00 13.7 4 Sudoeste 17 Oeste 0 -- -- 51
2020-03-03 04:00:00 15.8 10 Noroeste 30 Noroeste 0 -- -- 42
2020-03-03 03:00:00 16.3 20 Noroeste 28 Noroeste 0 -- -- 44
2020-03-03 02:00:00 16.8 15 Noroeste 43 Noroeste 0 -- -- 41
2020-03-03 01:00:00 17.5 21 Noroeste 42 Noroeste 0 -- -- 38
2020-03-03 00:00:00 17.4 19 Noroeste 40 Oeste 0 -- -- 40